sensor_id;sensor_type;location;lat;lon;timestamp;P1;durP1;ratioP1;P2;durP2;ratioP2
5674;SDS011;2860;54.284;10.158;2023-02-05T00:02:06;3.67;;;3.47;;
5674;SDS011;2860;54.284;10.158;2023-02-05T00:04:33;3.55;;;3.35;;
5674;SDS011;2860;54.284;10.158;2023-02-05T00:06:59;4.28;;;3.85;;
5674;SDS011;2860;54.284;10.158;2023-02-05T00:09:24;3.92;;;3.60;;
5674;SDS011;2860;54.284;10.158;2023-02-05T00:11:52;5.63;;;5.20;;
5674;SDS011;2860;54.284;10.158;2023-02-05T00:14:18;4.70;;;4.13;;
5674;SDS011;2860;54.284;10.158;2023-02-05T00:16:43;4.53;;;4.13;;
5674;SDS011;2860;54.284;10.158;2023-02-05T00:19:09;4.30;;;4.10;;
5674;SDS011;2860;54.284;10.158;2023-02-05T00:21:34;9.05;;;4.95;;
5674;SDS011;2860;54.284;10.158;2023-02-05T00:24:00;5.88;;;5.25;;
5674;SDS011;2860;54.284;10.158;2023-02-05T00:26:25;5.45;;;5.20;;
5674;SDS011;2860;54.284;10.158;2023-02-05T00:28:51;5.15;;;4.75;;
5674;SDS011;2860;54.284;10.158;2023-02-05T00:31:18;4.63;;;4.40;;
5674;SDS011;2860;54.284;10.158;2023-02-05T00:33:48;5.70;;;5.15;;
5674;SDS011;2860;54.284;10.158;2023-02-05T00:36:14;7.80;;;4.32;;
5674;SDS011;2860;54.284;10.158;2023-02-05T00:38:41;5.18;;;4.95;;
5674;SDS011;2860;54.284;10.158;2023-02-05T00:41:09;6.18;;;5.47;;
5674;SDS011;2860;54.284;10.158;2023-02-05T00:43:35;5.13;;;4.82;;
5674;SDS011;2860;54.284;10.158;2023-02-05T00:46:02;4.80;;;4.60;;
5674;SDS011;2860;54.284;10.158;2023-02-05T00:48:27;5.05;;;4.85;;
5674;SDS011;2860;54.284;10.158;2023-02-05T00:50:53;5.70;;;5.13;;
5674;SDS011;2860;54.284;10.158;2023-02-05T00:53:19;6.82;;;4.25;;
5674;SDS011;2860;54.284;10.158;2023-02-05T00:55:47;5.70;;;5.35;;
5674;SDS011;2860;54.284;10.158;2023-02-05T00:58:13;5.80;;;5.03;;
5674;SDS011;2860;54.284;10.158;2023-02-05T01:00:39;7.45;;;5.75;;
5674;SDS011;2860;54.284;10.158;2023-02-05T01:03:05;5.63;;;5.30;;
5674;SDS011;2860;54.284;10.158;2023-02-05T01:05:32;4.90;;;4.70;;
5674;SDS011;2860;54.284;10.158;2023-02-05T01:07:59;5.80;;;5.43;;
5674;SDS011;2860;54.284;10.158;2023-02-05T01:10:24;5.43;;;5.15;;
5674;SDS011;2860;54.284;10.158;2023-02-05T01:12:50;6.25;;;5.75;;
5674;SDS011;2860;54.284;10.158;2023-02-05T01:15:16;6.15;;;5.65;;
5674;SDS011;2860;54.284;10.158;2023-02-05T01:17:41;5.80;;;5.47;;
5674;SDS011;2860;54.284;10.158;2023-02-05T01:20:08;5.80;;;5.38;;
5674;SDS011;2860;54.284;10.158;2023-02-05T01:22:34;5.70;;;5.28;;
5674;SDS011;2860;54.284;10.158;2023-02-05T01:25:00;7.38;;;5.20;;
5674;SDS011;2860;54.284;10.158;2023-02-05T01:27:26;5.35;;;5.05;;
5674;SDS011;2860;54.284;10.158;2023-02-05T01:29:51;5.65;;;5.25;;
5674;SDS011;2860;54.284;10.158;2023-02-05T01:32:20;4.97;;;4.57;;
5674;SDS011;2860;54.284;10.158;2023-02-05T01:34:45;6.68;;;5.10;;
5674;SDS011;2860;54.284;10.158;2023-02-05T01:37:11;6.43;;;6.03;;
5674;SDS011;2860;54.284;10.158;2023-02-05T01:39:37;6.05;;;5.65;;
5674;SDS011;2860;54.284;10.158;2023-02-05T01:42:03;7.40;;;4.75;;
5674;SDS011;2860;54.284;10.158;2023-02-05T01:44:30;4.93;;;4.65;;
5674;SDS011;2860;54.284;10.158;2023-02-05T01:46:56;5.25;;;4.82;;
5674;SDS011;2860;54.284;10.158;2023-02-05T01:49:33;4.30;;;4.10;;
5674;SDS011;2860;54.284;10.158;2023-02-05T01:52:03;4.78;;;4.38;;
5674;SDS011;2860;54.284;10.158;2023-02-05T01:54:34;4.82;;;4.53;;
5674;SDS011;2860;54.284;10.158;2023-02-05T01:57:04;4.18;;;4.00;;
5674;SDS011;2860;54.284;10.158;2023-02-05T01:59:34;5.35;;;4.70;;
5674;SDS011;2860;54.284;10.158;2023-02-05T02:02:02;4.05;;;3.95;;
5674;SDS011;2860;54.284;10.158;2023-02-05T02:04:33;4.03;;;3.83;;
5674;SDS011;2860;54.284;10.158;2023-02-05T02:07:03;5.55;;;5.15;;
5674;SDS011;2860;54.284;10.158;2023-02-05T02:09:30;4.82;;;4.43;;
5674;SDS011;2860;54.284;10.158;2023-02-05T02:11:56;8.40;;;5.70;;
5674;SDS011;2860;54.284;10.158;2023-02-05T02:14:22;4.75;;;4.53;;
5674;SDS011;2860;54.284;10.158;2023-02-05T02:16:50;4.82;;;4.45;;
5674;SDS011;2860;54.284;10.158;2023-02-05T02:19:20;5.10;;;4.78;;
5674;SDS011;2860;54.284;10.158;2023-02-05T02:22:02;5.85;;;5.32;;
5674;SDS011;2860;54.284;10.158;2023-02-05T02:30:13;4.22;;;3.95;;
5674;SDS011;2860;54.284;10.158;2023-02-05T02:32:51;4.85;;;4.55;;
5674;SDS011;2860;54.284;10.158;2023-02-05T02:35:35;4.95;;;4.75;;
5674;SDS011;2860;54.284;10.158;2023-02-05T02:38:21;5.32;;;4.63;;
5674;SDS011;2860;54.284;10.158;2023-02-05T02:40:54;4.75;;;4.22;;
5674;SDS011;2860;54.284;10.158;2023-02-05T02:43:27;4.40;;;4.00;;
5674;SDS011;2860;54.284;10.158;2023-02-05T02:46:02;3.95;;;3.85;;
5674;SDS011;2860;54.284;10.158;2023-02-05T02:48:30;4.90;;;4.60;;
5674;SDS011;2860;54.284;10.158;2023-02-05T02:50:59;4.28;;;4.07;;
5674;SDS011;2860;54.284;10.158;2023-02-05T02:53:28;3.78;;;3.60;;
5674;SDS011;2860;54.284;10.158;2023-02-05T02:56:04;3.78;;;3.67;;
5674;SDS011;2860;54.284;10.158;2023-02-05T02:59:04;4.22;;;4.13;;
5674;SDS011;2860;54.284;10.158;2023-02-05T03:01:32;4.10;;;3.80;;
5674;SDS011;2860;54.284;10.158;2023-02-05T03:04:16;4.97;;;3.92;;
5674;SDS011;2860;54.284;10.158;2023-02-05T03:07:04;5.57;;;4.15;;
5674;SDS011;2860;54.284;10.158;2023-02-05T03:09:38;4.03;;;3.80;;
5674;SDS011;2860;54.284;10.158;2023-02-05T03:12:10;3.70;;;3.50;;
5674;SDS011;2860;54.284;10.158;2023-02-05T03:14:35;5.15;;;3.90;;
5674;SDS011;2860;54.284;10.158;2023-02-05T03:17:01;3.72;;;3.53;;
5674;SDS011;2860;54.284;10.158;2023-02-05T03:19:28;3.55;;;3.35;;
5674;SDS011;2860;54.284;10.158;2023-02-05T03:21:55;4.25;;;4.03;;
5674;SDS011;2860;54.284;10.158;2023-02-05T03:24:24;4.13;;;3.92;;
5674;SDS011;2860;54.284;10.158;2023-02-05T03:26:50;3.90;;;3.80;;
5674;SDS011;2860;54.284;10.158;2023-02-05T03:29:16;3.70;;;3.60;;
5674;SDS011;2860;54.284;10.158;2023-02-05T03:34:36;4.63;;;3.22;;
5674;SDS011;2860;54.284;10.158;2023-02-05T03:42:40;3.15;;;3.05;;
5674;SDS011;2860;54.284;10.158;2023-02-05T03:45:17;3.63;;;3.42;;
5674;SDS011;2860;54.284;10.158;2023-02-05T03:50:51;3.58;;;3.42;;
5674;SDS011;2860;54.284;10.158;2023-02-05T03:56:17;3.42;;;3.33;;
5674;SDS011;2860;54.284;10.158;2023-02-05T03:58:47;3.90;;;3.58;;
5674;SDS011;2860;54.284;10.158;2023-02-05T04:01:15;3.33;;;3.13;;
5674;SDS011;2860;54.284;10.158;2023-02-05T04:03:41;3.50;;;3.20;;
5674;SDS011;2860;54.284;10.158;2023-02-05T04:06:07;3.25;;;3.05;;
5674;SDS011;2860;54.284;10.158;2023-02-05T04:08:32;4.95;;;3.67;;
5674;SDS011;2860;54.284;10.158;2023-02-05T04:10:58;2.92;;;2.90;;
5674;SDS011;2860;54.284;10.158;2023-02-05T04:13:23;3.28;;;3.17;;
5674;SDS011;2860;54.284;10.158;2023-02-05T04:15:49;2.83;;;2.63;;
5674;SDS011;2860;54.284;10.158;2023-02-05T04:18:16;3.08;;;2.95;;
5674;SDS011;2860;54.284;10.158;2023-02-05T04:20:41;3.50;;;3.38;;
5674;SDS011;2860;54.284;10.158;2023-02-05T04:23:07;3.67;;;3.33;;
5674;SDS011;2860;54.284;10.158;2023-02-05T04:25:32;3.20;;;3.00;;
5674;SDS011;2860;54.284;10.158;2023-02-05T04:28:00;3.65;;;3.47;;
5674;SDS011;2860;54.284;10.158;2023-02-05T04:30:25;3.25;;;3.15;;
5674;SDS011;2860;54.284;10.158;2023-02-05T04:32:51;3.03;;;2.92;;
5674;SDS011;2860;54.284;10.158;2023-02-05T04:35:16;3.50;;;3.20;;
5674;SDS011;2860;54.284;10.158;2023-02-05T04:37:42;3.22;;;3.00;;
5674;SDS011;2860;54.284;10.158;2023-02-05T04:40:07;3.13;;;3.08;;
5674;SDS011;2860;54.284;10.158;2023-02-05T04:42:33;3.55;;;3.25;;
5674;SDS011;2860;54.284;10.158;2023-02-05T04:44:59;3.80;;;2.90;;
5674;SDS011;2860;54.284;10.158;2023-02-05T04:47:24;3.42;;;3.33;;
5674;SDS011;2860;54.284;10.158;2023-02-05T04:49:50;2.95;;;2.95;;
5674;SDS011;2860;54.284;10.158;2023-02-05T04:52:15;3.00;;;2.78;;
5674;SDS011;2860;54.284;10.158;2023-02-05T04:54:41;3.05;;;2.95;;
5674;SDS011;2860;54.284;10.158;2023-02-05T04:57:06;4.22;;;3.30;;
5674;SDS011;2860;54.284;10.158;2023-02-05T04:59:32;2.75;;;2.75;;
5674;SDS011;2860;54.284;10.158;2023-02-05T05:01:58;5.15;;;3.20;;
5674;SDS011;2860;54.284;10.158;2023-02-05T05:04:23;3.58;;;3.38;;
5674;SDS011;2860;54.284;10.158;2023-02-05T05:06:49;2.70;;;2.70;;
5674;SDS011;2860;54.284;10.158;2023-02-05T05:09:15;3.58;;;3.33;;
5674;SDS011;2860;54.284;10.158;2023-02-05T05:11:40;3.35;;;3.15;;
5674;SDS011;2860;54.284;10.158;2023-02-05T05:14:06;2.83;;;2.72;;
5674;SDS011;2860;54.284;10.158;2023-02-05T05:16:32;3.25;;;3.05;;
5674;SDS011;2860;54.284;10.158;2023-02-05T05:18:57;3.97;;;3.67;;
5674;SDS011;2860;54.284;10.158;2023-02-05T05:21:23;3.70;;;3.50;;
5674;SDS011;2860;54.284;10.158;2023-02-05T05:23:48;3.10;;;3.10;;
5674;SDS011;2860;54.284;10.158;2023-02-05T05:26:14;3.10;;;3.00;;
5674;SDS011;2860;54.284;10.158;2023-02-05T05:28:39;3.58;;;3.38;;
5674;SDS011;2860;54.284;10.158;2023-02-05T05:31:09;3.10;;;3.00;;
5674;SDS011;2860;54.284;10.158;2023-02-05T05:33:37;3.65;;;3.17;;
5674;SDS011;2860;54.284;10.158;2023-02-05T05:36:03;2.88;;;2.78;;
5674;SDS011;2860;54.284;10.158;2023-02-05T05:38:30;3.28;;;3.17;;
5674;SDS011;2860;54.284;10.158;2023-02-05T05:40:55;2.78;;;2.78;;
5674;SDS011;2860;54.284;10.158;2023-02-05T05:43:39;2.88;;;2.67;;
5674;SDS011;2860;54.284;10.158;2023-02-05T05:46:11;3.25;;;3.00;;
5674;SDS011;2860;54.284;10.158;2023-02-05T05:48:45;3.60;;;3.50;;
5674;SDS011;2860;54.284;10.158;2023-02-05T05:51:12;2.97;;;2.78;;
5674;SDS011;2860;54.284;10.158;2023-02-05T05:53:37;3.53;;;3.30;;
5674;SDS011;2860;54.284;10.158;2023-02-05T05:56:03;5.05;;;3.42;;
5674;SDS011;2860;54.284;10.158;2023-02-05T05:58:29;3.30;;;3.13;;
5674;SDS011;2860;54.284;10.158;2023-02-05T06:00:54;3.50;;;3.33;;
5674;SDS011;2860;54.284;10.158;2023-02-05T06:03:20;3.50;;;3.40;;
5674;SDS011;2860;54.284;10.158;2023-02-05T06:05:46;3.88;;;3.58;;
5674;SDS011;2860;54.284;10.158;2023-02-05T06:08:11;3.40;;;3.30;;
5674;SDS011;2860;54.284;10.158;2023-02-05T06:10:38;3.70;;;3.40;;
5674;SDS011;2860;54.284;10.158;2023-02-05T06:13:03;3.25;;;3.22;;
5674;SDS011;2860;54.284;10.158;2023-02-05T06:15:29;4.57;;;2.85;;
5674;SDS011;2860;54.284;10.158;2023-02-05T06:17:54;3.40;;;3.33;;
5674;SDS011;2860;54.284;10.158;2023-02-05T06:20:20;3.35;;;3.20;;
5674;SDS011;2860;54.284;10.158;2023-02-05T06:22:45;3.58;;;3.47;;
5674;SDS011;2860;54.284;10.158;2023-02-05T06:25:11;3.03;;;2.97;;
5674;SDS011;2860;54.284;10.158;2023-02-05T06:27:36;3.25;;;2.97;;
5674;SDS011;2860;54.284;10.158;2023-02-05T06:30:02;3.10;;;2.90;;
5674;SDS011;2860;54.284;10.158;2023-02-05T06:32:28;3.05;;;2.85;;
5674;SDS011;2860;54.284;10.158;2023-02-05T06:34:53;3.28;;;3.22;;
5674;SDS011;2860;54.284;10.158;2023-02-05T06:37:19;3.10;;;3.00;;
5674;SDS011;2860;54.284;10.158;2023-02-05T06:39:44;3.22;;;3.13;;
5674;SDS011;2860;54.284;10.158;2023-02-05T06:42:10;2.78;;;2.78;;
5674;SDS011;2860;54.284;10.158;2023-02-05T06:44:35;2.83;;;2.83;;
5674;SDS011;2860;54.284;10.158;2023-02-05T06:47:01;3.65;;;3.38;;
5674;SDS011;2860;54.284;10.158;2023-02-05T06:49:27;4.00;;;3.70;;
5674;SDS011;2860;54.284;10.158;2023-02-05T06:51:52;3.17;;;2.97;;
5674;SDS011;2860;54.284;10.158;2023-02-05T06:54:18;3.83;;;3.63;;
5674;SDS011;2860;54.284;10.158;2023-02-05T06:56:44;3.13;;;3.03;;
5674;SDS011;2860;54.284;10.158;2023-02-05T06:59:09;3.00;;;2.90;;
5674;SDS011;2860;54.284;10.158;2023-02-05T07:01:35;4.18;;;3.60;;
5674;SDS011;2860;54.284;10.158;2023-02-05T07:04:00;3.97;;;3.78;;
5674;SDS011;2860;54.284;10.158;2023-02-05T07:06:26;3.47;;;3.38;;
5674;SDS011;2860;54.284;10.158;2023-02-05T07:08:52;3.10;;;3.00;;
5674;SDS011;2860;54.284;10.158;2023-02-05T07:11:19;4.43;;;3.30;;
5674;SDS011;2860;54.284;10.158;2023-02-05T07:13:45;3.78;;;3.58;;
5674;SDS011;2860;54.284;10.158;2023-02-05T07:16:11;3.60;;;3.35;;
5674;SDS011;2860;54.284;10.158;2023-02-05T07:18:37;3.55;;;3.45;;
5674;SDS011;2860;54.284;10.158;2023-02-05T07:21:06;3.88;;;3.78;;
5674;SDS011;2860;54.284;10.158;2023-02-05T07:23:33;3.50;;;3.33;;
5674;SDS011;2860;54.284;10.158;2023-02-05T07:26:32;3.67;;;3.58;;
5674;SDS011;2860;54.284;10.158;2023-02-05T07:28:51;3.65;;;3.53;;
5674;SDS011;2860;54.284;10.158;2023-02-05T07:31:17;3.60;;;3.50;;
5674;SDS011;2860;54.284;10.158;2023-02-05T07:33:44;4.05;;;3.88;;
5674;SDS011;2860;54.284;10.158;2023-02-05T07:36:12;3.70;;;3.50;;
5674;SDS011;2860;54.284;10.158;2023-02-05T07:38:43;3.30;;;3.17;;
5674;SDS011;2860;54.284;10.158;2023-02-05T07:41:10;3.40;;;3.30;;
5674;SDS011;2860;54.284;10.158;2023-02-05T07:43:37;3.80;;;3.53;;
5674;SDS011;2860;54.284;10.158;2023-02-05T07:46:04;3.47;;;3.30;;
5674;SDS011;2860;54.284;10.158;2023-02-05T07:48:31;4.13;;;3.65;;
5674;SDS011;2860;54.284;10.158;2023-02-05T07:50:59;3.20;;;3.00;;
5674;SDS011;2860;54.284;10.158;2023-02-05T07:53:24;3.95;;;3.65;;
5674;SDS011;2860;54.284;10.158;2023-02-05T07:55:50;3.72;;;3.40;;
5674;SDS011;2860;54.284;10.158;2023-02-05T07:58:16;6.95;;;3.92;;
5674;SDS011;2860;54.284;10.158;2023-02-05T08:00:41;4.93;;;4.53;;
5674;SDS011;2860;54.284;10.158;2023-02-05T08:03:07;3.40;;;3.30;;
5674;SDS011;2860;54.284;10.158;2023-02-05T08:05:33;3.92;;;3.83;;
5674;SDS011;2860;54.284;10.158;2023-02-05T08:08:01;3.90;;;3.80;;
5674;SDS011;2860;54.284;10.158;2023-02-05T08:10:26;3.42;;;3.33;;
5674;SDS011;2860;54.284;10.158;2023-02-05T08:12:52;3.83;;;3.72;;
5674;SDS011;2860;54.284;10.158;2023-02-05T08:15:18;4.38;;;3.50;;
5674;SDS011;2860;54.284;10.158;2023-02-05T08:17:43;6.32;;;3.72;;
5674;SDS011;2860;54.284;10.158;2023-02-05T08:20:09;3.60;;;3.40;;
5674;SDS011;2860;54.284;10.158;2023-02-05T08:22:37;3.35;;;3.15;;
5674;SDS011;2860;54.284;10.158;2023-02-05T08:25:04;3.35;;;3.10;;
5674;SDS011;2860;54.284;10.158;2023-02-05T08:27:32;3.28;;;3.17;;
5674;SDS011;2860;54.284;10.158;2023-02-05T08:29:58;2.85;;;2.65;;
5674;SDS011;2860;54.284;10.158;2023-02-05T08:32:23;3.33;;;3.13;;
5674;SDS011;2860;54.284;10.158;2023-02-05T08:34:48;4.18;;;3.97;;
5674;SDS011;2860;54.284;10.158;2023-02-05T08:37:14;3.53;;;3.22;;
5674;SDS011;2860;54.284;10.158;2023-02-05T08:39:40;2.90;;;2.80;;
5674;SDS011;2860;54.284;10.158;2023-02-05T08:42:05;5.90;;;3.78;;
5674;SDS011;2860;54.284;10.158;2023-02-05T08:44:31;3.08;;;2.92;;
5674;SDS011;2860;54.284;10.158;2023-02-05T08:46:56;3.70;;;3.55;;
5674;SDS011;2860;54.284;10.158;2023-02-05T08:49:22;3.20;;;3.10;;
5674;SDS011;2860;54.284;10.158;2023-02-05T08:51:48;3.50;;;3.40;;
5674;SDS011;2860;54.284;10.158;2023-02-05T08:54:13;4.38;;;4.18;;
5674;SDS011;2860;54.284;10.158;2023-02-05T08:56:39;2.92;;;2.92;;
5674;SDS011;2860;54.284;10.158;2023-02-05T08:59:06;3.55;;;3.45;;
5674;SDS011;2860;54.284;10.158;2023-02-05T09:01:33;4.00;;;3.58;;
5674;SDS011;2860;54.284;10.158;2023-02-05T09:04:01;4.25;;;3.90;;
5674;SDS011;2860;54.284;10.158;2023-02-05T09:06:28;3.95;;;3.83;;
5674;SDS011;2860;54.284;10.158;2023-02-05T09:08:53;4.15;;;3.70;;
5674;SDS011;2860;54.284;10.158;2023-02-05T09:11:19;2.90;;;2.80;;
5674;SDS011;2860;54.284;10.158;2023-02-05T09:13:46;3.17;;;2.97;;
5674;SDS011;2860;54.284;10.158;2023-02-05T09:16:11;2.95;;;2.85;;
5674;SDS011;2860;54.284;10.158;2023-02-05T09:18:37;3.47;;;2.75;;
5674;SDS011;2860;54.284;10.158;2023-02-05T09:21:05;3.40;;;3.20;;
5674;SDS011;2860;54.284;10.158;2023-02-05T09:23:31;2.70;;;2.55;;
5674;SDS011;2860;54.284;10.158;2023-02-05T09:25:57;2.20;;;2.17;;
5674;SDS011;2860;54.284;10.158;2023-02-05T09:28:23;3.08;;;2.88;;
5674;SDS011;2860;54.284;10.158;2023-02-05T09:30:49;2.60;;;2.50;;
5674;SDS011;2860;54.284;10.158;2023-02-05T09:33:15;3.08;;;3.08;;
5674;SDS011;2860;54.284;10.158;2023-02-05T09:35:41;3.20;;;3.05;;
5674;SDS011;2860;54.284;10.158;2023-02-05T09:38:07;3.78;;;3.47;;
5674;SDS011;2860;54.284;10.158;2023-02-05T09:40:34;3.30;;;3.20;;
5674;SDS011;2860;54.284;10.158;2023-02-05T09:43:14;3.45;;;3.25;;
5674;SDS011;2860;54.284;10.158;2023-02-05T09:51:19;6.05;;;5.53;;
5674;SDS011;2860;54.284;10.158;2023-02-05T09:53:54;5.65;;;3.97;;
5674;SDS011;2860;54.284;10.158;2023-02-05T09:56:23;3.70;;;3.42;;
5674;SDS011;2860;54.284;10.158;2023-02-05T09:58:50;3.35;;;3.25;;
5674;SDS011;2860;54.284;10.158;2023-02-05T10:01:23;3.10;;;3.00;;
5674;SDS011;2860;54.284;10.158;2023-02-05T10:03:59;4.28;;;3.03;;
5674;SDS011;2860;54.284;10.158;2023-02-05T10:11:40;3.42;;;3.17;;
5674;SDS011;2860;54.284;10.158;2023-02-05T10:14:21;4.05;;;3.53;;
5674;SDS011;2860;54.284;10.158;2023-02-05T10:17:12;3.05;;;3.05;;
5674;SDS011;2860;54.284;10.158;2023-02-05T10:20:23;3.25;;;3.15;;
5674;SDS011;2860;54.284;10.158;2023-02-05T10:22:31;6.45;;;2.90;;
5674;SDS011;2860;54.284;10.158;2023-02-05T10:25:32;3.58;;;3.47;;
5674;SDS011;2860;54.284;10.158;2023-02-05T10:31:22;3.97;;;3.78;;
5674;SDS011;2860;54.284;10.158;2023-02-05T10:34:06;3.67;;;3.45;;
5674;SDS011;2860;54.284;10.158;2023-02-05T10:36:43;3.83;;;3.63;;
5674;SDS011;2860;54.284;10.158;2023-02-05T10:39:14;4.35;;;3.40;;
5674;SDS011;2860;54.284;10.158;2023-02-05T10:41:43;4.60;;;2.95;;
5674;SDS011;2860;54.284;10.158;2023-02-05T10:44:30;2.92;;;2.83;;
5674;SDS011;2860;54.284;10.158;2023-02-05T10:47:04;3.72;;;3.60;;
5674;SDS011;2860;54.284;10.158;2023-02-05T10:49:50;3.53;;;3.30;;
5674;SDS011;2860;54.284;10.158;2023-02-05T10:52:20;5.35;;;3.47;;
5674;SDS011;2860;54.284;10.158;2023-02-05T10:54:46;3.75;;;2.88;;
5674;SDS011;2860;54.284;10.158;2023-02-05T10:57:21;3.85;;;3.75;;
5674;SDS011;2860;54.284;10.158;2023-02-05T11:00:11;7.13;;;4.28;;
5674;SDS011;2860;54.284;10.158;2023-02-05T11:02:40;4.13;;;3.83;;
5674;SDS011;2860;54.284;10.158;2023-02-05T11:05:19;4.93;;;4.65;;
5674;SDS011;2860;54.284;10.158;2023-02-05T11:07:51;3.33;;;3.20;;
5674;SDS011;2860;54.284;10.158;2023-02-05T11:12:48;3.83;;;3.72;;
5674;SDS011;2860;54.284;10.158;2023-02-05T11:15:18;4.47;;;3.95;;
5674;SDS011;2860;54.284;10.158;2023-02-05T11:17:53;4.03;;;3.92;;
5674;SDS011;2860;54.284;10.158;2023-02-05T11:20:36;3.53;;;3.42;;
5674;SDS011;2860;54.284;10.158;2023-02-05T11:23:04;3.70;;;3.40;;
5674;SDS011;2860;54.284;10.158;2023-02-05T11:25:32;4.30;;;3.78;;
5674;SDS011;2860;54.284;10.158;2023-02-05T11:27:58;5.55;;;5.07;;
5674;SDS011;2860;54.284;10.158;2023-02-05T11:30:34;4.28;;;4.07;;
5674;SDS011;2860;54.284;10.158;2023-02-05T11:35:49;4.15;;;3.95;;
5674;SDS011;2860;54.284;10.158;2023-02-05T11:38:34;7.85;;;7.15;;
5674;SDS011;2860;54.284;10.158;2023-02-05T11:41:09;4.35;;;4.00;;
5674;SDS011;2860;54.284;10.158;2023-02-05T11:43:37;4.50;;;4.30;;
5674;SDS011;2860;54.284;10.158;2023-02-05T11:46:09;3.58;;;3.28;;
5674;SDS011;2860;54.284;10.158;2023-02-05T11:48:41;4.50;;;4.20;;
5674;SDS011;2860;54.284;10.158;2023-02-05T11:51:10;5.05;;;4.85;;
5674;SDS011;2860;54.284;10.158;2023-02-05T11:53:45;3.83;;;3.72;;
5674;SDS011;2860;54.284;10.158;2023-02-05T11:56:21;4.07;;;3.97;;
5674;SDS011;2860;54.284;10.158;2023-02-05T12:01:29;4.95;;;4.25;;
5674;SDS011;2860;54.284;10.158;2023-02-05T12:03:58;4.40;;;4.20;;
5674;SDS011;2860;54.284;10.158;2023-02-05T12:06:54;3.83;;;3.72;;
5674;SDS011;2860;54.284;10.158;2023-02-05T12:09:27;4.22;;;3.92;;
5674;SDS011;2860;54.284;10.158;2023-02-05T12:17:37;4.65;;;4.35;;
5674;SDS011;2860;54.284;10.158;2023-02-05T12:20:33;4.50;;;4.28;;
5674;SDS011;2860;54.284;10.158;2023-02-05T12:25:45;5.10;;;4.65;;
5674;SDS011;2860;54.284;10.158;2023-02-05T12:28:36;4.90;;;4.65;;
5674;SDS011;2860;54.284;10.158;2023-02-05T12:32:00;4.88;;;4.57;;
5674;SDS011;2860;54.284;10.158;2023-02-05T12:34:26;5.18;;;4.82;;
5674;SDS011;2860;54.284;10.158;2023-02-05T12:36:59;5.75;;;5.53;;
5674;SDS011;2860;54.284;10.158;2023-02-05T12:40:07;5.57;;;5.05;;
5674;SDS011;2860;54.284;10.158;2023-02-05T12:48:24;4.78;;;4.57;;
5674;SDS011;2860;54.284;10.158;2023-02-05T12:53:52;5.43;;;4.93;;
5674;SDS011;2860;54.284;10.158;2023-02-05T12:56:53;4.85;;;4.65;;
5674;SDS011;2860;54.284;10.158;2023-02-05T12:59:41;5.55;;;5.05;;
5674;SDS011;2860;54.284;10.158;2023-02-05T13:04:47;5.57;;;5.05;;
5674;SDS011;2860;54.284;10.158;2023-02-05T13:07:22;5.53;;;5.20;;
5674;SDS011;2860;54.284;10.158;2023-02-05T13:10:03;4.97;;;4.88;;
5674;SDS011;2860;54.284;10.158;2023-02-05T13:12:41;5.80;;;5.30;;
5674;SDS011;2860;54.284;10.158;2023-02-05T13:20:41;5.38;;;5.18;;
5674;SDS011;2860;54.284;10.158;2023-02-05T13:23:28;6.25;;;4.95;;
5674;SDS011;2860;54.284;10.158;2023-02-05T13:26:13;6.40;;;5.82;;
5674;SDS011;2860;54.284;10.158;2023-02-05T13:29:09;4.78;;;4.47;;
5674;SDS011;2860;54.284;10.158;2023-02-05T13:31:41;6.75;;;6.22;;
5674;SDS011;2860;54.284;10.158;2023-02-05T13:34:12;5.30;;;5.00;;
5674;SDS011;2860;54.284;10.158;2023-02-05T13:39:46;6.82;;;6.22;;
5674;SDS011;2860;54.284;10.158;2023-02-05T13:50:47;5.88;;;5.32;;
5674;SDS011;2860;54.284;10.158;2023-02-05T13:56:40;8.85;;;5.25;;
5674;SDS011;2860;54.284;10.158;2023-02-05T13:59:21;6.43;;;5.97;;
5674;SDS011;2860;54.284;10.158;2023-02-05T14:02:13;5.75;;;5.35;;
5674;SDS011;2860;54.284;10.158;2023-02-05T14:04:57;5.63;;;5.25;;
5674;SDS011;2860;54.284;10.158;2023-02-05T14:07:25;6.47;;;5.93;;
5674;SDS011;2860;54.284;10.158;2023-02-05T14:09:55;6.70;;;6.20;;
5674;SDS011;2860;54.284;10.158;2023-02-05T14:12:25;6.05;;;5.75;;
5674;SDS011;2860;54.284;10.158;2023-02-05T14:22:50;6.40;;;5.82;;
5674;SDS011;2860;54.284;10.158;2023-02-05T14:27:59;7.88;;;7.18;;
5674;SDS011;2860;54.284;10.158;2023-02-05T14:30:49;7.43;;;6.80;;
5674;SDS011;2860;54.284;10.158;2023-02-05T14:33:26;8.82;;;6.65;;
5674;SDS011;2860;54.284;10.158;2023-02-05T14:42:02;8.98;;;8.30;;
5674;SDS011;2860;54.284;10.158;2023-02-05T14:44:32;12.75;;;8.32;;
5674;SDS011;2860;54.284;10.158;2023-02-05T14:47:24;14.43;;;9.35;;
5674;SDS011;2860;54.284;10.158;2023-02-05T14:49:57;11.32;;;9.82;;
5674;SDS011;2860;54.284;10.158;2023-02-05T14:52:32;12.70;;;9.38;;
5674;SDS011;2860;54.284;10.158;2023-02-05T14:57:41;10.82;;;9.55;;
5674;SDS011;2860;54.284;10.158;2023-02-05T15:13:27;21.67;;;12.82;;
5674;SDS011;2860;54.284;10.158;2023-02-05T15:16:06;13.93;;;11.73;;
5674;SDS011;2860;54.284;10.158;2023-02-05T15:18:42;14.52;;;12.40;;
5674;SDS011;2860;54.284;10.158;2023-02-05T15:21:21;22.55;;;13.38;;
5674;SDS011;2860;54.284;10.158;2023-02-05T15:24:13;18.75;;;13.30;;
5674;SDS011;2860;54.284;10.158;2023-02-05T15:26:46;22.92;;;14.27;;
5674;SDS011;2860;54.284;10.158;2023-02-05T15:29:26;21.55;;;14.43;;
5674;SDS011;2860;54.284;10.158;2023-02-05T15:31:57;20.38;;;15.20;;
5674;SDS011;2860;54.284;10.158;2023-02-05T15:37:03;23.92;;;16.25;;
5674;SDS011;2860;54.284;10.158;2023-02-05T15:39:48;28.92;;;16.55;;
5674;SDS011;2860;54.284;10.158;2023-02-05T15:42:18;27.45;;;16.73;;
5674;SDS011;2860;54.284;10.158;2023-02-05T15:44:46;22.52;;;15.20;;
5674;SDS011;2860;54.284;10.158;2023-02-05T15:47:13;25.27;;;16.25;;
5674;SDS011;2860;54.284;10.158;2023-02-05T15:49:45;21.67;;;14.55;;
5674;SDS011;2860;54.284;10.158;2023-02-05T15:52:23;28.42;;;15.75;;
5674;SDS011;2860;54.284;10.158;2023-02-05T15:54:52;22.63;;;15.77;;
5674;SDS011;2860;54.284;10.158;2023-02-05T15:57:24;24.55;;;16.60;;
5674;SDS011;2860;54.284;10.158;2023-02-05T15:59:54;20.20;;;15.52;;
5674;SDS011;2860;54.284;10.158;2023-02-05T16:02:25;20.35;;;15.18;;
5674;SDS011;2860;54.284;10.158;2023-02-05T16:04:59;20.33;;;15.55;;
5674;SDS011;2860;54.284;10.158;2023-02-05T16:07:40;22.77;;;15.23;;
5674;SDS011;2860;54.284;10.158;2023-02-05T16:10:14;17.95;;;15.38;;
5674;SDS011;2860;54.284;10.158;2023-02-05T16:17:59;25.63;;;16.92;;
5674;SDS011;2860;54.284;10.158;2023-02-05T16:20:29;24.90;;;18.70;;
5674;SDS011;2860;54.284;10.158;2023-02-05T16:22:58;27.35;;;17.52;;
5674;SDS011;2860;54.284;10.158;2023-02-05T16:28:15;27.55;;;18.42;;
5674;SDS011;2860;54.284;10.158;2023-02-05T16:30:46;29.10;;;18.05;;
5674;SDS011;2860;54.284;10.158;2023-02-05T16:33:23;20.77;;;16.60;;
5674;SDS011;2860;54.284;10.158;2023-02-05T16:35:53;23.85;;;18.10;;
5674;SDS011;2860;54.284;10.158;2023-02-05T16:38:21;30.92;;;19.20;;
5674;SDS011;2860;54.284;10.158;2023-02-05T16:40:48;26.27;;;18.80;;
5674;SDS011;2860;54.284;10.158;2023-02-05T16:46:19;37.28;;;19.48;;
5674;SDS011;2860;54.284;10.158;2023-02-05T16:48:54;29.63;;;18.50;;
5674;SDS011;2860;54.284;10.158;2023-02-05T16:56:36;28.08;;;19.00;;
5674;SDS011;2860;54.284;10.158;2023-02-05T16:59:12;27.95;;;18.80;;
5674;SDS011;2860;54.284;10.158;2023-02-05T17:01:45;29.40;;;17.92;;
5674;SDS011;2860;54.284;10.158;2023-02-05T17:04:24;34.95;;;19.83;;
5674;SDS011;2860;54.284;10.158;2023-02-05T17:06:54;41.90;;;18.95;;
5674;SDS011;2860;54.284;10.158;2023-02-05T17:09:35;29.25;;;19.52;;
5674;SDS011;2860;54.284;10.158;2023-02-05T17:14:56;31.08;;;19.25;;
5674;SDS011;2860;54.284;10.158;2023-02-05T17:17:49;32.72;;;19.05;;
5674;SDS011;2860;54.284;10.158;2023-02-05T17:20:18;33.28;;;21.10;;
5674;SDS011;2860;54.284;10.158;2023-02-05T17:25:35;39.40;;;20.13;;
5674;SDS011;2860;54.284;10.158;2023-02-05T17:28:10;30.45;;;20.25;;
5674;SDS011;2860;54.284;10.158;2023-02-05T17:30:40;46.75;;;20.77;;
5674;SDS011;2860;54.284;10.158;2023-02-05T17:33:07;33.60;;;21.88;;
5674;SDS011;2860;54.284;10.158;2023-02-05T17:35:33;34.53;;;21.23;;
5674;SDS011;2860;54.284;10.158;2023-02-05T17:37:59;41.83;;;22.27;;